sensor_id;sensor_type;location;lat;lon;timestamp;P1;durP1;ratioP1;P2;durP2;ratioP2
47599;SDS011;33323;52.124;6.018;2023-05-08T00:02:08;10.23;;;8.07;;
47599;SDS011;33323;52.124;6.018;2023-05-08T00:04:35;20.67;;;7.70;;
47599;SDS011;33323;52.124;6.018;2023-05-08T00:07:02;8.40;;;6.40;;
47599;SDS011;33323;52.124;6.018;2023-05-08T00:09:29;13.93;;;8.25;;
47599;SDS011;33323;52.124;6.018;2023-05-08T00:11:56;10.75;;;6.82;;
47599;SDS011;33323;52.124;6.018;2023-05-08T00:14:23;25.58;;;7.70;;
47599;SDS011;33323;52.124;6.018;2023-05-08T00:16:50;8.40;;;7.07;;
47599;SDS011;33323;52.124;6.018;2023-05-08T00:19:17;13.45;;;9.00;;
47599;SDS011;33323;52.124;6.018;2023-05-08T00:21:44;14.73;;;11.32;;
47599;SDS011;33323;52.124;6.018;2023-05-08T00:24:11;13.63;;;11.07;;
47599;SDS011;33323;52.124;6.018;2023-05-08T00:26:38;14.43;;;10.50;;
47599;SDS011;33323;52.124;6.018;2023-05-08T00:29:07;15.95;;;11.07;;
47599;SDS011;33323;52.124;6.018;2023-05-08T00:31:34;12.70;;;10.20;;
47599;SDS011;33323;52.124;6.018;2023-05-08T00:34:01;15.65;;;11.85;;
47599;SDS011;33323;52.124;6.018;2023-05-08T00:36:28;19.35;;;9.30;;
47599;SDS011;33323;52.124;6.018;2023-05-08T00:38:55;9.45;;;7.10;;
47599;SDS011;33323;52.124;6.018;2023-05-08T00:41:22;10.10;;;7.22;;
47599;SDS011;33323;52.124;6.018;2023-05-08T00:43:49;9.73;;;8.48;;
47599;SDS011;33323;52.124;6.018;2023-05-08T00:46:16;11.35;;;8.45;;
47599;SDS011;33323;52.124;6.018;2023-05-08T00:48:44;89.25;;;11.88;;
47599;SDS011;33323;52.124;6.018;2023-05-08T00:51:12;27.00;;;8.55;;
47599;SDS011;33323;52.124;6.018;2023-05-08T00:53:41;50.78;;;11.75;;
47599;SDS011;33323;52.124;6.018;2023-05-08T00:56:11;18.65;;;10.43;;
47599;SDS011;33323;52.124;6.018;2023-05-08T00:58:40;16.15;;;11.18;;
47599;SDS011;33323;52.124;6.018;2023-05-08T01:01:09;14.05;;;11.40;;
47599;SDS011;33323;52.124;6.018;2023-05-08T01:03:36;14.70;;;9.75;;
47599;SDS011;33323;52.124;6.018;2023-05-08T01:06:04;11.50;;;9.38;;
47599;SDS011;33323;52.124;6.018;2023-05-08T01:08:32;9.98;;;7.57;;
47599;SDS011;33323;52.124;6.018;2023-05-08T01:16:52;7.22;;;5.47;;
47599;SDS011;33323;52.124;6.018;2023-05-08T01:33:55;88.07;;;9.65;;
47599;SDS011;33323;52.124;6.018;2023-05-08T01:36:40;34.63;;;9.15;;
47599;SDS011;33323;52.124;6.018;2023-05-08T01:42:23;35.25;;;5.80;;
47599;SDS011;33323;52.124;6.018;2023-05-08T01:44:55;6.72;;;4.78;;
47599;SDS011;33323;52.124;6.018;2023-05-08T01:47:27;7.25;;;5.45;;
47599;SDS011;33323;52.124;6.018;2023-05-08T01:50:03;8.60;;;5.40;;
47599;SDS011;33323;52.124;6.018;2023-05-08T01:52:50;8.63;;;6.25;;
47599;SDS011;33323;52.124;6.018;2023-05-08T01:55:25;17.52;;;7.05;;
47599;SDS011;33323;52.124;6.018;2023-05-08T01:57:57;61.67;;;7.40;;
47599;SDS011;33323;52.124;6.018;2023-05-08T02:00:25;10.98;;;5.95;;
47599;SDS011;33323;52.124;6.018;2023-05-08T02:02:56;10.45;;;7.18;;
47599;SDS011;33323;52.124;6.018;2023-05-08T02:05:24;7.70;;;5.10;;
47599;SDS011;33323;52.124;6.018;2023-05-08T02:07:53;10.00;;;6.10;;
47599;SDS011;33323;52.124;6.018;2023-05-08T02:10:23;4.65;;;4.03;;
47599;SDS011;33323;52.124;6.018;2023-05-08T02:12:51;7.55;;;5.90;;
47599;SDS011;33323;52.124;6.018;2023-05-08T02:15:20;14.13;;;6.20;;
47599;SDS011;33323;52.124;6.018;2023-05-08T02:17:49;11.73;;;6.60;;
47599;SDS011;33323;52.124;6.018;2023-05-08T02:20:19;10.57;;;6.00;;
47599;SDS011;33323;52.124;6.018;2023-05-08T02:22:48;11.55;;;6.93;;
47599;SDS011;33323;52.124;6.018;2023-05-08T02:25:17;10.30;;;7.38;;
47599;SDS011;33323;52.124;6.018;2023-05-08T02:27:47;7.68;;;6.45;;
47599;SDS011;33323;52.124;6.018;2023-05-08T02:30:16;10.80;;;7.82;;
47599;SDS011;33323;52.124;6.018;2023-05-08T02:32:44;12.35;;;8.25;;
47599;SDS011;33323;52.124;6.018;2023-05-08T02:35:15;12.88;;;8.77;;
47599;SDS011;33323;52.124;6.018;2023-05-08T02:37:49;13.50;;;9.90;;
47599;SDS011;33323;52.124;6.018;2023-05-08T02:40:19;12.75;;;9.95;;
47599;SDS011;33323;52.124;6.018;2023-05-08T02:42:50;15.05;;;10.23;;
47599;SDS011;33323;52.124;6.018;2023-05-08T02:45:17;14.70;;;9.30;;
47599;SDS011;33323;52.124;6.018;2023-05-08T02:50:20;20.23;;;8.65;;
47599;SDS011;33323;52.124;6.018;2023-05-08T02:53:16;11.95;;;6.57;;
47599;SDS011;33323;52.124;6.018;2023-05-08T02:56:02;10.98;;;7.60;;
47599;SDS011;33323;52.124;6.018;2023-05-08T02:58:45;12.43;;;8.20;;
47599;SDS011;33323;52.124;6.018;2023-05-08T03:01:24;12.93;;;9.25;;
47599;SDS011;33323;52.124;6.018;2023-05-08T03:04:00;12.73;;;9.53;;
47599;SDS011;33323;52.124;6.018;2023-05-08T03:06:34;12.43;;;9.63;;
47599;SDS011;33323;52.124;6.018;2023-05-08T03:09:10;16.45;;;11.27;;
47599;SDS011;33323;52.124;6.018;2023-05-08T03:11:43;18.63;;;12.48;;
47599;SDS011;33323;52.124;6.018;2023-05-08T03:14:15;16.55;;;12.60;;
47599;SDS011;33323;52.124;6.018;2023-05-08T03:16:49;15.30;;;10.85;;
47599;SDS011;33323;52.124;6.018;2023-05-08T03:19:21;12.75;;;8.55;;
47599;SDS011;33323;52.124;6.018;2023-05-08T03:21:53;12.18;;;9.27;;
47599;SDS011;33323;52.124;6.018;2023-05-08T03:24:22;12.73;;;8.48;;
47599;SDS011;33323;52.124;6.018;2023-05-08T03:26:51;17.35;;;9.93;;
47599;SDS011;33323;52.124;6.018;2023-05-08T03:29:22;20.30;;;11.20;;
47599;SDS011;33323;52.124;6.018;2023-05-08T03:31:50;20.10;;;13.10;;
47599;SDS011;33323;52.124;6.018;2023-05-08T03:34:19;18.08;;;12.85;;
47599;SDS011;33323;52.124;6.018;2023-05-08T03:36:49;14.13;;;8.90;;
47599;SDS011;33323;52.124;6.018;2023-05-08T03:39:17;12.82;;;8.23;;
47599;SDS011;33323;52.124;6.018;2023-05-08T03:41:44;10.75;;;7.70;;
47599;SDS011;33323;52.124;6.018;2023-05-08T03:44:11;13.57;;;11.05;;
47599;SDS011;33323;52.124;6.018;2023-05-08T03:46:39;21.67;;;12.35;;
47599;SDS011;33323;52.124;6.018;2023-05-08T03:49:08;48.17;;;13.27;;
47599;SDS011;33323;52.124;6.018;2023-05-08T03:51:39;16.92;;;12.10;;
47599;SDS011;33323;52.124;6.018;2023-05-08T03:54:07;20.25;;;13.20;;
47599;SDS011;33323;52.124;6.018;2023-05-08T03:56:34;19.17;;;13.43;;
47599;SDS011;33323;52.124;6.018;2023-05-08T03:59:08;17.17;;;12.75;;
47599;SDS011;33323;52.124;6.018;2023-05-08T04:01:47;23.55;;;16.30;;
47599;SDS011;33323;52.124;6.018;2023-05-08T04:04:29;18.27;;;13.98;;
47599;SDS011;33323;52.124;6.018;2023-05-08T04:07:18;19.10;;;13.82;;
47599;SDS011;33323;52.124;6.018;2023-05-08T04:10:18;19.50;;;13.32;;
47599;SDS011;33323;52.124;6.018;2023-05-08T04:13:09;19.35;;;12.93;;
47599;SDS011;33323;52.124;6.018;2023-05-08T04:15:47;20.23;;;13.98;;
47599;SDS011;33323;52.124;6.018;2023-05-08T04:18:24;22.00;;;14.00;;
47599;SDS011;33323;52.124;6.018;2023-05-08T04:20:58;23.23;;;13.70;;
47599;SDS011;33323;52.124;6.018;2023-05-08T04:23:27;15.38;;;10.98;;
47599;SDS011;33323;52.124;6.018;2023-05-08T04:25:56;17.58;;;13.57;;
47599;SDS011;33323;52.124;6.018;2023-05-08T04:28:25;18.48;;;12.15;;
47599;SDS011;33323;52.124;6.018;2023-05-08T04:30:53;15.15;;;11.27;;
47599;SDS011;33323;52.124;6.018;2023-05-08T04:33:23;17.08;;;11.15;;
47599;SDS011;33323;52.124;6.018;2023-05-08T04:35:51;12.75;;;10.10;;
47599;SDS011;33323;52.124;6.018;2023-05-08T04:38:18;13.20;;;9.40;;
47599;SDS011;33323;52.124;6.018;2023-05-08T04:40:46;10.23;;;8.23;;
47599;SDS011;33323;52.124;6.018;2023-05-08T04:43:13;10.48;;;9.02;;
47599;SDS011;33323;52.124;6.018;2023-05-08T04:45:40;14.52;;;9.70;;
47599;SDS011;33323;52.124;6.018;2023-05-08T04:48:07;13.82;;;10.20;;
47599;SDS011;33323;52.124;6.018;2023-05-08T04:50:34;15.30;;;10.95;;
47599;SDS011;33323;52.124;6.018;2023-05-08T04:53:02;13.30;;;10.77;;
47599;SDS011;33323;52.124;6.018;2023-05-08T04:55:29;13.48;;;11.02;;
47599;SDS011;33323;52.124;6.018;2023-05-08T04:57:56;14.48;;;9.60;;
47599;SDS011;33323;52.124;6.018;2023-05-08T05:00:23;18.10;;;11.10;;
47599;SDS011;33323;52.124;6.018;2023-05-08T05:02:50;23.05;;;10.18;;
47599;SDS011;33323;52.124;6.018;2023-05-08T05:05:17;21.55;;;10.48;;
47599;SDS011;33323;52.124;6.018;2023-05-08T05:07:45;14.38;;;10.75;;
47599;SDS011;33323;52.124;6.018;2023-05-08T05:10:12;11.77;;;9.32;;
47599;SDS011;33323;52.124;6.018;2023-05-08T05:12:39;26.65;;;11.07;;
47599;SDS011;33323;52.124;6.018;2023-05-08T05:15:07;11.93;;;9.50;;
47599;SDS011;33323;52.124;6.018;2023-05-08T05:17:37;12.35;;;8.73;;
47599;SDS011;33323;52.124;6.018;2023-05-08T05:20:05;17.55;;;9.77;;
47599;SDS011;33323;52.124;6.018;2023-05-08T05:22:34;13.45;;;10.43;;
47599;SDS011;33323;52.124;6.018;2023-05-08T05:25:01;14.25;;;12.23;;
47599;SDS011;33323;52.124;6.018;2023-05-08T05:27:29;20.67;;;12.98;;
47599;SDS011;33323;52.124;6.018;2023-05-08T05:29:56;19.13;;;14.45;;
47599;SDS011;33323;52.124;6.018;2023-05-08T05:32:25;19.92;;;15.77;;
47599;SDS011;33323;52.124;6.018;2023-05-08T05:34:53;20.02;;;16.35;;
47599;SDS011;33323;52.124;6.018;2023-05-08T05:37:21;24.77;;;16.13;;
47599;SDS011;33323;52.124;6.018;2023-05-08T05:39:48;19.42;;;15.25;;
47599;SDS011;33323;52.124;6.018;2023-05-08T05:42:15;21.13;;;14.93;;
47599;SDS011;33323;52.124;6.018;2023-05-08T05:44:43;20.98;;;15.70;;
47599;SDS011;33323;52.124;6.018;2023-05-08T05:47:10;21.33;;;15.95;;
47599;SDS011;33323;52.124;6.018;2023-05-08T05:49:39;22.10;;;17.48;;
47599;SDS011;33323;52.124;6.018;2023-05-08T05:52:09;21.33;;;15.88;;
47599;SDS011;33323;52.124;6.018;2023-05-08T05:54:37;22.45;;;16.67;;
47599;SDS011;33323;52.124;6.018;2023-05-08T05:57:04;21.90;;;16.20;;
47599;SDS011;33323;52.124;6.018;2023-05-08T05:59:32;19.33;;;15.35;;
47599;SDS011;33323;52.124;6.018;2023-05-08T06:01:59;19.92;;;15.50;;
47599;SDS011;33323;52.124;6.018;2023-05-08T06:04:26;19.00;;;16.05;;
47599;SDS011;33323;52.124;6.018;2023-05-08T06:06:53;20.35;;;15.32;;
47599;SDS011;33323;52.124;6.018;2023-05-08T06:09:21;18.92;;;16.02;;
47599;SDS011;33323;52.124;6.018;2023-05-08T06:11:50;21.23;;;16.17;;
47599;SDS011;33323;52.124;6.018;2023-05-08T06:14:17;17.17;;;13.75;;
47599;SDS011;33323;52.124;6.018;2023-05-08T06:16:44;19.48;;;15.13;;
47599;SDS011;33323;52.124;6.018;2023-05-08T06:19:11;22.13;;;15.82;;
47599;SDS011;33323;52.124;6.018;2023-05-08T06:21:38;16.40;;;14.02;;
47599;SDS011;33323;52.124;6.018;2023-05-08T06:24:05;18.23;;;13.82;;
47599;SDS011;33323;52.124;6.018;2023-05-08T06:26:33;18.48;;;14.02;;
47599;SDS011;33323;52.124;6.018;2023-05-08T06:29:00;14.77;;;12.68;;
47599;SDS011;33323;52.124;6.018;2023-05-08T06:31:27;19.67;;;14.82;;
47599;SDS011;33323;52.124;6.018;2023-05-08T06:33:54;17.73;;;14.18;;
47599;SDS011;33323;52.124;6.018;2023-05-08T06:36:21;21.35;;;13.98;;
47599;SDS011;33323;52.124;6.018;2023-05-08T06:38:48;18.17;;;14.35;;
47599;SDS011;33323;52.124;6.018;2023-05-08T06:41:15;18.95;;;14.48;;
47599;SDS011;33323;52.124;6.018;2023-05-08T06:43:42;16.77;;;14.48;;
47599;SDS011;33323;52.124;6.018;2023-05-08T06:46:09;20.40;;;15.30;;
47599;SDS011;33323;52.124;6.018;2023-05-08T06:48:36;19.40;;;15.38;;
47599;SDS011;33323;52.124;6.018;2023-05-08T06:51:03;18.05;;;14.68;;
47599;SDS011;33323;52.124;6.018;2023-05-08T06:53:30;18.75;;;14.82;;
47599;SDS011;33323;52.124;6.018;2023-05-08T06:55:57;19.27;;;16.02;;
47599;SDS011;33323;52.124;6.018;2023-05-08T06:58:25;22.58;;;16.48;;
47599;SDS011;33323;52.124;6.018;2023-05-08T07:00:52;25.58;;;16.77;;
47599;SDS011;33323;52.124;6.018;2023-05-08T07:03:19;22.33;;;16.52;;
47599;SDS011;33323;52.124;6.018;2023-05-08T07:05:46;24.52;;;16.85;;
47599;SDS011;33323;52.124;6.018;2023-05-08T07:08:13;23.52;;;15.77;;
47599;SDS011;33323;52.124;6.018;2023-05-08T07:10:40;28.08;;;19.10;;
47599;SDS011;33323;52.124;6.018;2023-05-08T07:13:07;31.90;;;19.23;;
47599;SDS011;33323;52.124;6.018;2023-05-08T07:15:34;33.40;;;19.60;;
47599;SDS011;33323;52.124;6.018;2023-05-08T07:18:01;33.75;;;18.77;;
47599;SDS011;33323;52.124;6.018;2023-05-08T07:20:29;35.63;;;20.10;;
47599;SDS011;33323;52.124;6.018;2023-05-08T07:22:55;40.95;;;21.40;;
47599;SDS011;33323;52.124;6.018;2023-05-08T07:25:22;37.35;;;20.38;;
47599;SDS011;33323;52.124;6.018;2023-05-08T07:27:49;33.10;;;19.48;;
47599;SDS011;33323;52.124;6.018;2023-05-08T07:30:16;35.72;;;20.63;;
47599;SDS011;33323;52.124;6.018;2023-05-08T07:32:43;32.72;;;20.15;;
47599;SDS011;33323;52.124;6.018;2023-05-08T07:35:11;40.95;;;22.35;;
47599;SDS011;33323;52.124;6.018;2023-05-08T07:37:38;38.60;;;21.40;;
47599;SDS011;33323;52.124;6.018;2023-05-08T07:40:06;37.17;;;20.35;;
47599;SDS011;33323;52.124;6.018;2023-05-08T07:42:40;45.47;;;22.52;;
47599;SDS011;33323;52.124;6.018;2023-05-08T07:45:08;39.83;;;21.58;;
47599;SDS011;33323;52.124;6.018;2023-05-08T07:47:38;35.35;;;20.73;;
47599;SDS011;33323;52.124;6.018;2023-05-08T07:50:19;40.15;;;24.02;;
47599;SDS011;33323;52.124;6.018;2023-05-08T07:52:47;37.83;;;23.65;;
47599;SDS011;33323;52.124;6.018;2023-05-08T07:55:15;36.63;;;22.42;;
47599;SDS011;33323;52.124;6.018;2023-05-08T07:57:44;39.15;;;21.83;;
47599;SDS011;33323;52.124;6.018;2023-05-08T08:00:12;30.13;;;20.05;;
47599;SDS011;33323;52.124;6.018;2023-05-08T08:02:40;36.67;;;23.38;;
47599;SDS011;33323;52.124;6.018;2023-05-08T08:05:09;31.30;;;19.98;;
47599;SDS011;33323;52.124;6.018;2023-05-08T08:07:36;31.25;;;20.20;;
47599;SDS011;33323;52.124;6.018;2023-05-08T08:10:04;30.63;;;18.75;;
47599;SDS011;33323;52.124;6.018;2023-05-08T08:12:32;40.55;;;23.05;;
47599;SDS011;33323;52.124;6.018;2023-05-08T08:14:59;40.72;;;22.98;;
47599;SDS011;33323;52.124;6.018;2023-05-08T08:17:26;36.30;;;22.73;;
47599;SDS011;33323;52.124;6.018;2023-05-08T08:19:54;37.40;;;21.13;;
47599;SDS011;33323;52.124;6.018;2023-05-08T08:22:23;35.78;;;23.20;;
47599;SDS011;33323;52.124;6.018;2023-05-08T08:24:51;40.60;;;22.63;;
47599;SDS011;33323;52.124;6.018;2023-05-08T08:27:21;42.63;;;23.25;;
47599;SDS011;33323;52.124;6.018;2023-05-08T08:29:48;39.05;;;22.65;;
47599;SDS011;33323;52.124;6.018;2023-05-08T08:32:19;43.85;;;26.10;;
47599;SDS011;33323;52.124;6.018;2023-05-08T08:34:46;46.65;;;26.25;;
47599;SDS011;33323;52.124;6.018;2023-05-08T08:37:13;43.85;;;25.98;;
47599;SDS011;33323;52.124;6.018;2023-05-08T08:39:40;49.95;;;25.58;;
47599;SDS011;33323;52.124;6.018;2023-05-08T08:42:07;50.75;;;25.58;;
47599;SDS011;33323;52.124;6.018;2023-05-08T08:44:34;49.17;;;25.08;;
47599;SDS011;33323;52.124;6.018;2023-05-08T08:47:04;41.70;;;24.30;;
47599;SDS011;33323;52.124;6.018;2023-05-08T08:49:39;46.03;;;25.63;;
47599;SDS011;33323;52.124;6.018;2023-05-08T08:54:58;49.45;;;26.92;;
47599;SDS011;33323;52.124;6.018;2023-05-08T08:57:31;43.63;;;26.65;;
47599;SDS011;33323;52.124;6.018;2023-05-08T09:00:03;50.67;;;27.95;;
47599;SDS011;33323;52.124;6.018;2023-05-08T09:02:33;47.58;;;27.65;;
47599;SDS011;33323;52.124;6.018;2023-05-08T09:05:01;45.65;;;25.77;;
47599;SDS011;33323;52.124;6.018;2023-05-08T09:07:29;46.67;;;26.02;;
47599;SDS011;33323;52.124;6.018;2023-05-08T09:09:56;49.33;;;28.13;;
47599;SDS011;33323;52.124;6.018;2023-05-08T09:12:23;43.70;;;26.80;;
47599;SDS011;33323;52.124;6.018;2023-05-08T09:14:50;43.92;;;26.55;;
47599;SDS011;33323;52.124;6.018;2023-05-08T09:17:17;43.97;;;25.15;;
47599;SDS011;33323;52.124;6.018;2023-05-08T09:19:44;43.42;;;25.55;;
47599;SDS011;33323;52.124;6.018;2023-05-08T09:22:14;38.20;;;25.83;;
47599;SDS011;33323;52.124;6.018;2023-05-08T09:24:53;42.63;;;26.13;;
47599;SDS011;33323;52.124;6.018;2023-05-08T09:27:23;38.95;;;25.02;;
47599;SDS011;33323;52.124;6.018;2023-05-08T09:29:57;38.47;;;23.67;;
47599;SDS011;33323;52.124;6.018;2023-05-08T09:32:26;40.50;;;24.40;;
47599;SDS011;33323;52.124;6.018;2023-05-08T09:34:55;36.97;;;23.45;;
47599;SDS011;33323;52.124;6.018;2023-05-08T09:37:23;38.58;;;25.20;;
47599;SDS011;33323;52.124;6.018;2023-05-08T09:39:51;43.20;;;26.08;;
47599;SDS011;33323;52.124;6.018;2023-05-08T09:42:19;41.72;;;25.02;;
47599;SDS011;33323;52.124;6.018;2023-05-08T09:44:49;39.63;;;25.55;;
47599;SDS011;33323;52.124;6.018;2023-05-08T09:47:19;38.92;;;24.67;;
47599;SDS011;33323;52.124;6.018;2023-05-08T09:52:32;41.17;;;25.90;;
47599;SDS011;33323;52.124;6.018;2023-05-08T09:55:05;44.35;;;25.05;;
47599;SDS011;33323;52.124;6.018;2023-05-08T09:57:39;40.75;;;27.50;;
47599;SDS011;33323;52.124;6.018;2023-05-08T10:00:18;38.72;;;26.95;;
47599;SDS011;33323;52.124;6.018;2023-05-08T10:02:57;38.05;;;26.25;;
47599;SDS011;33323;52.124;6.018;2023-05-08T10:05:28;40.70;;;27.67;;
47599;SDS011;33323;52.124;6.018;2023-05-08T10:07:58;38.85;;;24.80;;
47599;SDS011;33323;52.124;6.018;2023-05-08T10:10:44;40.70;;;25.63;;
47599;SDS011;33323;52.124;6.018;2023-05-08T10:13:12;43.53;;;27.33;;
47599;SDS011;33323;52.124;6.018;2023-05-08T10:15:41;42.30;;;26.90;;
47599;SDS011;33323;52.124;6.018;2023-05-08T10:18:09;40.58;;;25.45;;
47599;SDS011;33323;52.124;6.018;2023-05-08T10:20:38;39.40;;;26.20;;
47599;SDS011;33323;52.124;6.018;2023-05-08T10:23:07;39.13;;;26.15;;
47599;SDS011;33323;52.124;6.018;2023-05-08T10:25:51;38.47;;;26.70;;
47599;SDS011;33323;52.124;6.018;2023-05-08T10:28:28;40.75;;;26.83;;
47599;SDS011;33323;52.124;6.018;2023-05-08T10:31:03;41.20;;;27.10;;
47599;SDS011;33323;52.124;6.018;2023-05-08T10:33:33;40.03;;;26.65;;
47599;SDS011;33323;52.124;6.018;2023-05-08T10:36:01;36.22;;;25.05;;
47599;SDS011;33323;52.124;6.018;2023-05-08T10:38:29;39.53;;;26.05;;
47599;SDS011;33323;52.124;6.018;2023-05-08T10:41:01;38.67;;;24.05;;
47599;SDS011;33323;52.124;6.018;2023-05-08T10:43:29;42.15;;;24.95;;
47599;SDS011;33323;52.124;6.018;2023-05-08T10:45:56;41.85;;;25.38;;
47599;SDS011;33323;52.124;6.018;2023-05-08T10:48:33;46.90;;;27.00;;
47599;SDS011;33323;52.124;6.018;2023-05-08T10:56:39;41.42;;;26.63;;
47599;SDS011;33323;52.124;6.018;2023-05-08T10:59:06;39.83;;;27.13;;
47599;SDS011;33323;52.124;6.018;2023-05-08T11:01:46;45.00;;;30.77;;
47599;SDS011;33323;52.124;6.018;2023-05-08T11:04:21;36.88;;;26.80;;
47599;SDS011;33323;52.124;6.018;2023-05-08T11:06:49;43.47;;;25.97;;
47599;SDS011;33323;52.124;6.018;2023-05-08T11:09:27;38.88;;;26.40;;
47599;SDS011;33323;52.124;6.018;2023-05-08T11:12:06;42.10;;;28.23;;
47599;SDS011;33323;52.124;6.018;2023-05-08T11:14:54;37.38;;;25.65;;
47599;SDS011;33323;52.124;6.018;2023-05-08T11:17:31;39.22;;;25.73;;
47599;SDS011;33323;52.124;6.018;2023-05-08T11:20:00;29.20;;;21.90;;
47599;SDS011;33323;52.124;6.018;2023-05-08T11:22:30;33.47;;;22.83;;
47599;SDS011;33323;52.124;6.018;2023-05-08T11:25:17;29.70;;;20.63;;
47599;SDS011;33323;52.124;6.018;2023-05-08T11:30:35;25.52;;;20.20;;
47599;SDS011;33323;52.124;6.018;2023-05-08T11:40:56;30.13;;;21.00;;
47599;SDS011;33323;52.124;6.018;2023-05-08T11:46:02;23.77;;;19.52;;
47599;SDS011;33323;52.124;6.018;2023-05-08T11:48:43;28.77;;;21.00;;
47599;SDS011;33323;52.124;6.018;2023-05-08T11:51:10;27.40;;;21.38;;
47599;SDS011;33323;52.124;6.018;2023-05-08T11:53:39;26.55;;;20.30;;
47599;SDS011;33323;52.124;6.018;2023-05-08T11:56:06;28.98;;;22.30;;
47599;SDS011;33323;52.124;6.018;2023-05-08T11:58:34;27.17;;;20.92;;
47599;SDS011;33323;52.124;6.018;2023-05-08T12:01:02;25.95;;;19.70;;
47599;SDS011;33323;52.124;6.018;2023-05-08T12:03:29;25.05;;;20.65;;
47599;SDS011;33323;52.124;6.018;2023-05-08T12:05:56;25.13;;;21.42;;
47599;SDS011;33323;52.124;6.018;2023-05-08T12:08:25;27.35;;;20.20;;
47599;SDS011;33323;52.124;6.018;2023-05-08T12:10:53;30.40;;;22.48;;
47599;SDS011;33323;52.124;6.018;2023-05-08T12:13:26;35.13;;;25.90;;
47599;SDS011;33323;52.124;6.018;2023-05-08T12:15:56;32.47;;;26.33;;
47599;SDS011;33323;52.124;6.018;2023-05-08T12:18:26;34.28;;;23.83;;
47599;SDS011;33323;52.124;6.018;2023-05-08T12:20:59;32.15;;;24.48;;
47599;SDS011;33323;52.124;6.018;2023-05-08T12:23:27;35.22;;;26.45;;
47599;SDS011;33323;52.124;6.018;2023-05-08T12:25:58;35.33;;;26.80;;
47599;SDS011;33323;52.124;6.018;2023-05-08T12:28:26;37.97;;;27.48;;
47599;SDS011;33323;52.124;6.018;2023-05-08T12:30:54;41.08;;;27.45;;
47599;SDS011;33323;52.124;6.018;2023-05-08T12:33:21;40.50;;;27.35;;
47599;SDS011;33323;52.124;6.018;2023-05-08T12:35:49;35.13;;;26.42;;
47599;SDS011;33323;52.124;6.018;2023-05-08T12:38:16;37.85;;;26.80;;
47599;SDS011;33323;52.124;6.018;2023-05-08T12:40:44;34.78;;;27.63;;
47599;SDS011;33323;52.124;6.018;2023-05-08T12:43:18;28.45;;;23.35;;
47599;SDS011;33323;52.124;6.018;2023-05-08T12:45:45;36.88;;;26.40;;
47599;SDS011;33323;52.124;6.018;2023-05-08T12:48:18;37.00;;;28.85;;
47599;SDS011;33323;52.124;6.018;2023-05-08T12:50:45;39.08;;;30.83;;
47599;SDS011;33323;52.124;6.018;2023-05-08T12:53:13;39.83;;;30.88;;
47599;SDS011;33323;52.124;6.018;2023-05-08T12:55:50;39.50;;;31.95;;
47599;SDS011;33323;52.124;6.018;2023-05-08T12:58:26;42.78;;;33.20;;
47599;SDS011;33323;52.124;6.018;2023-05-08T13:01:06;39.70;;;30.33;;
47599;SDS011;33323;52.124;6.018;2023-05-08T13:03:39;35.17;;;28.27;;
47599;SDS011;33323;52.124;6.018;2023-05-08T13:06:17;33.20;;;27.55;;
47599;SDS011;33323;52.124;6.018;2023-05-08T13:08:51;34.20;;;25.63;;
47599;SDS011;33323;52.124;6.018;2023-05-08T13:11:28;34.80;;;26.17;;
47599;SDS011;33323;52.124;6.018;2023-05-08T13:13:58;38.63;;;26.60;;
47599;SDS011;33323;52.124;6.018;2023-05-08T13:16:25;35.55;;;27.17;;
47599;SDS011;33323;52.124;6.018;2023-05-08T13:18:52;36.38;;;26.02;;
47599;SDS011;33323;52.124;6.018;2023-05-08T13:21:19;36.88;;;27.02;;
47599;SDS011;33323;52.124;6.018;2023-05-08T13:23:46;37.17;;;27.42;;
47599;SDS011;33323;52.124;6.018;2023-05-08T13:26:14;36.00;;;28.13;;
47599;SDS011;33323;52.124;6.018;2023-05-08T13:28:41;34.42;;;27.33;;
47599;SDS011;33323;52.124;6.018;2023-05-08T13:31:08;34.25;;;27.23;;
47599;SDS011;33323;52.124;6.018;2023-05-08T13:33:35;33.40;;;26.88;;
47599;SDS011;33323;52.124;6.018;2023-05-08T13:36:03;36.03;;;28.33;;
47599;SDS011;33323;52.124;6.018;2023-05-08T13:38:31;35.08;;;28.13;;
47599;SDS011;33323;52.124;6.018;2023-05-08T13:40:59;34.95;;;27.58;;
47599;SDS011;33323;52.124;6.018;2023-05-08T13:43:26;37.30;;;29.17;;
47599;SDS011;33323;52.124;6.018;2023-05-08T13:45:54;35.88;;;28.83;;
47599;SDS011;33323;52.124;6.018;2023-05-08T13:48:21;38.53;;;26.75;;
47599;SDS011;33323;52.124;6.018;2023-05-08T13:50:48;34.92;;;28.45;;
47599;SDS011;33323;52.124;6.018;2023-05-08T13:53:15;37.53;;;28.20;;
47599;SDS011;33323;52.124;6.018;2023-05-08T13:55:42;34.47;;;27.58;;
47599;SDS011;33323;52.124;6.018;2023-05-08T13:58:09;33.17;;;25.65;;
47599;SDS011;33323;52.124;6.018;2023-05-08T14:00:36;35.40;;;27.25;;
47599;SDS011;33323;52.124;6.018;2023-05-08T14:03:03;38.42;;;27.75;;
47599;SDS011;33323;52.124;6.018;2023-05-08T14:05:30;30.75;;;25.00;;
47599;SDS011;33323;52.124;6.018;2023-05-08T14:07:57;34.63;;;27.38;;
47599;SDS011;33323;52.124;6.018;2023-05-08T14:10:24;34.47;;;27.13;;
47599;SDS011;33323;52.124;6.018;2023-05-08T14:12:52;34.35;;;26.70;;
47599;SDS011;33323;52.124;6.018;2023-05-08T14:15:19;34.92;;;26.92;;
47599;SDS011;33323;52.124;6.018;2023-05-08T14:17:48;35.92;;;26.40;;
47599;SDS011;33323;52.124;6.018;2023-05-08T14:20:15;36.08;;;27.50;;
47599;SDS011;33323;52.124;6.018;2023-05-08T14:22:42;32.63;;;25.30;;
47599;SDS011;33323;52.124;6.018;2023-05-08T14:25:11;31.80;;;25.35;;
47599;SDS011;33323;52.124;6.018;2023-05-08T14:27:39;34.33;;;26.15;;
47599;SDS011;33323;52.124;6.018;2023-05-08T14:30:06;31.63;;;25.27;;
47599;SDS011;33323;52.124;6.018;2023-05-08T14:32:34;34.42;;;25.77;;
47599;SDS011;33323;52.124;6.018;2023-05-08T14:35:01;30.88;;;25.25;;
47599;SDS011;33323;52.124;6.018;2023-05-08T14:37:28;41.92;;;25.30;;
47599;SDS011;33323;52.124;6.018;2023-05-08T14:39:56;32.50;;;25.27;;
47599;SDS011;33323;52.124;6.018;2023-05-08T14:42:24;32.15;;;25.98;;
47599;SDS011;33323;52.124;6.018;2023-05-08T14:44:51;32.55;;;24.23;;
47599;SDS011;33323;52.124;6.018;2023-05-08T14:47:18;30.98;;;25.05;;
47599;SDS011;33323;52.124;6.018;2023-05-08T14:49:46;32.50;;;24.63;;
47599;SDS011;33323;52.124;6.018;2023-05-08T14:52:13;31.17;;;25.05;;
47599;SDS011;33323;52.124;6.018;2023-05-08T14:54:40;34.40;;;25.73;;
47599;SDS011;33323;52.124;6.018;2023-05-08T14:57:07;30.77;;;25.27;;
47599;SDS011;33323;52.124;6.018;2023-05-08T14:59:34;31.60;;;23.33;;
47599;SDS011;33323;52.124;6.018;2023-05-08T15:02:01;29.67;;;24.73;;
47599;SDS011;33323;52.124;6.018;2023-05-08T15:04:28;27.73;;;21.65;;
47599;SDS011;33323;52.124;6.018;2023-05-08T15:06:55;26.45;;;22.15;;
47599;SDS011;33323;52.124;6.018;2023-05-08T15:09:23;30.10;;;23.50;;
47599;SDS011;33323;52.124;6.018;2023-05-08T15:11:50;29.48;;;22.92;;
47599;SDS011;33323;52.124;6.018;2023-05-08T15:14:17;28.42;;;22.55;;
47599;SDS011;33323;52.124;6.018;2023-05-08T15:16:44;28.63;;;22.35;;
47599;SDS011;33323;52.124;6.018;2023-05-08T15:19:11;28.70;;;22.05;;
47599;SDS011;33323;52.124;6.018;2023-05-08T15:21:38;29.15;;;21.67;;
47599;SDS011;33323;52.124;6.018;2023-05-08T15:24:06;29.42;;;22.40;;
47599;SDS011;33323;52.124;6.018;2023-05-08T15:26:33;29.92;;;23.10;;
47599;SDS011;33323;52.124;6.018;2023-05-08T15:29:00;26.60;;;20.50;;